Time;durP1;ratioP1;P1;durP2;ratioP2;P2;SDS_P1;SDS_P2;PMS_P1;PMS_P2;Temp;Humidity;BMP_temperature;BMP_pressure;BME280_temperature;BME280_humidity;BME280_pressure;Samples;Min_cycle;Max_cycle;Signal;HPM_P1;HPM_P2
2021/08/26 00:07:10;;;;;;;;;;;10.90;99.90;;;;;;8431147;28;19930;-64
2021/08/26 00:11:12;;;;;;;;;;;10.80;99.90;;;;;;8430386;28;19920;-63
2021/08/26 00:15:13;;;;;;;;;;;10.70;99.90;;;;;;8430834;28;20276;-63
2021/08/26 00:19:13;;;;;;;;;;;10.70;99.90;;;;;;8425046;28;19908;-64
2021/08/26 00:23:14;;;;;;;;;;;10.50;99.90;;;;;;8425391;28;19955;-64
2021/08/26 00:27:14;;;;;;;;;;;10.70;99.90;;;;;;8430345;28;19908;-64
2021/08/26 00:31:15;;;;;;;;;;;10.60;99.90;;;;;;8429854;28;19916;-63
2021/08/26 00:35:15;;;;;;;;;;;10.40;99.90;;;;;;8430164;28;19966;-64
2021/08/26 00:39:16;;;;;;;;;;;10.50;99.90;;;;;;8429597;28;19908;-64
2021/08/26 00:43:17;;;;;;;;;;;10.40;99.90;;;;;;8429977;28;19912;-64
2021/08/26 00:47:17;;;;;;;;;;;10.30;99.90;;;;;;8429862;28;19908;-64
2021/08/26 00:51:18;;;;;;;;;;;10.50;99.90;;;;;;8424320;28;19931;-63
2021/08/26 00:55:18;;;;;;;;;;;10.30;99.90;;;;;;8396284;28;20430;-64
2021/08/26 00:59:19;;;;;;;;;;;10.30;99.90;;;;;;8395795;28;20527;-63
2021/08/26 01:03:24;;;;;;;;;;;10.20;99.90;;;;;;8395791;28;19917;-63
2021/08/26 01:07:29;;;;;;;;;;;10.10;99.90;;;;;;8395122;28;19999;-63
2021/08/26 01:11:38;;;;;;;;;;;10.10;99.90;;;;;;8395492;28;20083;-64
2021/08/26 01:15:38;;;;;;;;;;;9.90;99.90;;;;;;8393663;28;19967;-64
2021/08/26 01:19:39;;;;;;;;;;;9.90;99.90;;;;;;8394365;28;20763;-63
2021/08/26 01:23:41;;;;;;;;;;;10.00;99.90;;;;;;8418814;28;19924;-63
2021/08/26 01:27:50;;;;;;;;;;;10.20;99.90;;;;;;8394533;28;20263;-63
2021/08/26 01:31:50;;;;;;;;;;;10.20;99.90;;;;;;8394425;28;19952;-64
2021/08/26 01:35:51;;;;;;;;;;;10.20;99.90;;;;;;8394419;28;20370;-64
2021/08/26 01:39:52;;;;;;;;;;;10.00;99.90;;;;;;8393848;28;19954;-64
2021/08/26 01:43:53;;;;;;;;;;;9.70;99.90;;;;;;8394006;28;19908;-64
2021/08/26 01:47:53;;;;;;;;;;;9.60;99.90;;;;;;8393745;28;19958;-64
2021/08/26 01:51:53;;;;;;;;;;;9.40;99.90;;;;;;8410758;28;19944;-64
2021/08/26 01:55:54;;;;;;;;;;;9.30;99.90;;;;;;8419228;28;19945;-64
2021/08/26 01:59:55;;;;;;;;;;;9.40;99.90;;;;;;8393062;28;20196;-64
2021/08/26 02:03:55;;;;;;;;;;;9.30;99.90;;;;;;8393339;28;19917;-64
2021/08/26 02:07:56;;;;;;;;;;;9.20;99.90;;;;;;8393309;28;19915;-64
2021/08/26 02:11:56;;;;;;;;;;;9.20;99.90;;;;;;8393619;28;19912;-64
2021/08/26 02:15:57;;;;;;;;;;;9.30;99.90;;;;;;8391506;28;19913;-64
2021/08/26 02:19:57;;;;;;;;;;;9.30;99.90;;;;;;8392871;28;20047;-64
2021/08/26 02:23:58;;;;;;;;;;;9.30;99.90;;;;;;8393990;28;19917;-64
2021/08/26 02:27:59;;;;;;;;;;;9.40;99.90;;;;;;8392912;28;19909;-64
2021/08/26 02:31:59;;;;;;;;;;;9.50;99.90;;;;;;8393562;28;19970;-64
2021/08/26 02:36:00;;;;;;;;;;;9.60;99.90;;;;;;8392145;28;19916;-64
2021/08/26 02:40:00;;;;;;;;;;;9.80;99.90;;;;;;8392968;28;19932;-64
2021/08/26 02:44:01;;;;;;;;;;;9.80;99.90;;;;;;8392664;28;19909;-64
2021/08/26 02:48:01;;;;;;;;;;;9.90;99.90;;;;;;8391891;28;20367;-64
2021/08/26 02:52:02;;;;;;;;;;;9.80;99.90;;;;;;8410730;28;20028;-64
2021/08/26 02:56:02;;;;;;;;;;;10.00;99.90;;;;;;8425851;28;19912;-64
2021/08/26 03:00:06;;;;;;;;;;;10.00;99.90;;;;;;8417524;28;19912;-64
2021/08/26 03:04:07;;;;;;;;;;;10.00;99.90;;;;;;8392538;28;19913;-64
2021/08/26 03:08:07;;;;;;;;;;;9.90;99.90;;;;;;8392107;28;20394;-64
2021/08/26 03:12:08;;;;;;;;;;;9.90;99.90;;;;;;8392592;28;19916;-64
2021/08/26 03:16:08;;;;;;;;;;;10.00;99.90;;;;;;8392605;28;19935;-64
2021/08/26 03:20:09;;;;;;;;;;;10.20;99.90;;;;;;8393970;28;19999;-64
2021/08/26 03:24:10;;;;;;;;;;;10.30;99.90;;;;;;8425863;28;19919;-64
2021/08/26 03:28:10;;;;;;;;;;;10.20;99.90;;;;;;8425349;28;20289;-64
2021/08/26 03:32:11;;;;;;;;;;;10.40;99.90;;;;;;8419913;28;20315;-64
2021/08/26 03:36:12;;;;;;;;;;;10.20;99.90;;;;;;8398606;28;19954;-63
2021/08/26 03:40:13;;;;;;;;;;;10.10;99.90;;;;;;8398174;28;20005;-64
2021/08/26 03:44:13;;;;;;;;;;;10.10;99.90;;;;;;8398358;28;19908;-64
2021/08/26 03:48:14;;;;;;;;;;;10.00;99.90;;;;;;8398047;28;19915;-64
2021/08/26 03:52:14;;;;;;;;;;;10.10;99.90;;;;;;8417660;28;19908;-64
2021/08/26 03:56:15;;;;;;;;;;;10.10;99.90;;;;;;8431478;28;19964;-64
2021/08/26 04:00:16;;;;;;;;;;;10.20;99.90;;;;;;8430791;28;19908;-64
2021/08/26 04:04:16;;;;;;;;;;;10.10;99.90;;;;;;8422881;28;20286;-64
2021/08/26 04:08:16;;;;;;;;;;;10.10;99.90;;;;;;8397489;28;19947;-63
2021/08/26 04:12:17;;;;;;;;;;;9.80;99.90;;;;;;8397220;28;20385;-64
2021/08/26 04:16:17;;;;;;;;;;;9.70;99.90;;;;;;8392344;28;19912;-63
2021/08/26 04:20:18;;;;;;;;;;;9.50;99.90;;;;;;8399737;28;20010;-64
2021/08/26 04:24:18;;;;;;;;;;;9.40;99.90;;;;;;8430412;28;20389;-64
2021/08/26 04:28:19;;;;;;;;;;;9.50;99.90;;;;;;8430589;28;19912;-64
2021/08/26 04:32:19;;;;;;;;;;;11.00;99.90;;;;;;8429692;28;19963;-64
2021/08/26 04:36:20;;;;;;;;;;;11.30;99.90;;;;;;8422079;28;19923;-64
2021/08/26 04:40:20;;;;;;;;;;;11.50;99.90;;;;;;8396600;28;20003;-64
2021/08/26 04:44:21;;;;;;;;;;;11.90;99.90;;;;;;8395349;28;19908;-64
2021/08/26 04:48:21;;;;;;;;;;;11.90;99.90;;;;;;8395985;28;19912;-64
2021/08/26 04:52:22;;;;;;;;;;;11.90;99.90;;;;;;8416457;28;20428;-64
2021/08/26 04:56:22;;;;;;;;;;;11.40;99.90;;;;;;8429485;28;19920;-63
2021/08/26 05:00:23;;;;;;;;;;;11.00;99.90;;;;;;8429022;28;19908;-64
2021/08/26 05:04:24;;;;;;;;;;;10.90;99.90;;;;;;8429270;28;19918;-64
2021/08/26 05:08:24;;;;;;;;;;;10.70;99.90;;;;;;8421454;28;19917;-64
2021/08/26 05:12:25;;;;;;;;;;;10.60;99.90;;;;;;8395410;28;20465;-64
2021/08/26 05:16:25;;;;;;;;;;;10.60;99.90;;;;;;8398284;28;19920;-64
2021/08/26 05:20:25;;;;;;;;;;;10.80;99.90;;;;;;8409901;28;19920;-64
2021/08/26 05:24:26;;;;;;;;;;;11.10;99.90;;;;;;8427324;28;19916;-64
2021/08/26 05:28:26;;;;;;;;;;;11.40;99.90;;;;;;8426982;28;20057;-64
2021/08/26 05:32:27;;;;;;;;;;;11.50;99.90;;;;;;8424707;28;19920;-65
2021/08/26 05:36:27;;;;;;;;;;;11.70;99.90;;;;;;8425954;28;19916;-64
2021/08/26 05:40:28;;;;;;;;;;;11.80;99.90;;;;;;8416738;28;19942;-64
2021/08/26 05:44:28;;;;;;;;;;;12.10;99.90;;;;;;8397106;28;20286;-63
2021/08/26 05:48:29;;;;;;;;;;;12.60;99.90;;;;;;8408979;28;20383;-64
2021/08/26 05:52:29;;;;;;;;;;;13.00;99.90;;;;;;8426448;28;20007;-64
2021/08/26 05:56:30;;;;;;;;;;;13.30;99.90;;;;;;8425789;28;19923;-64
2021/08/26 06:00:31;;;;;;;;;;;13.50;99.90;;;;;;8426806;28;19954;-64
2021/08/26 06:04:31;;;;;;;;;;;13.90;99.90;;;;;;8426672;28;19916;-64
2021/08/26 06:08:32;;;;;;;;;;;14.30;99.90;;;;;;8420293;28;20697;-64
2021/08/26 06:12:32;;;;;;;;;;;14.50;99.90;;;;;;8419477;28;20398;-64
2021/08/26 06:16:33;;;;;;;;;;;14.70;99.90;;;;;;8393465;28;19912;-64
2021/08/26 06:20:35;;;;;;;;;;;15.00;99.90;;;;;;8396837;28;19915;-64
2021/08/26 06:24:35;;;;;;;;;;;15.20;99.90;;;;;;8426457;28;19908;-64
2021/08/26 06:28:35;;;;;;;;;;;15.40;99.90;;;;;;8425537;28;19909;-64
2021/08/26 06:32:36;;;;;;;;;;;15.70;99.90;;;;;;8424973;28;19919;-64
2021/08/26 06:36:37;;;;;;;;;;;15.60;99.90;;;;;;8425876;28;19962;-64
2021/08/26 06:40:37;;;;;;;;;;;15.30;99.90;;;;;;8426244;28;19912;-64
2021/08/26 06:44:38;;;;;;;;;;;15.20;99.90;;;;;;8419205;28;20279;-64
2021/08/26 06:48:38;;;;;;;;;;;15.50;99.90;;;;;;8392278;28;19908;-64
2021/08/26 06:52:38;;;;;;;;;;;15.70;99.90;;;;;;8409051;28;19959;-64
2021/08/26 06:56:39;;;;;;;;;;;15.80;99.90;;;;;;8417079;28;19934;-64
2021/08/26 07:00:39;;;;;;;;;;;15.80;99.90;;;;;;8425299;28;20305;-64
2021/08/26 07:04:40;;;;;;;;;;;15.90;99.90;;;;;;8397845;28;19917;-64
2021/08/26 07:08:40;;;;;;;;;;;16.00;99.90;;;;;;8405595;28;20328;-64
2021/08/26 07:12:41;;;;;;;;;;;16.30;99.90;;;;;;8402880;28;20367;-64
2021/08/26 07:16:42;;;;;;;;;;;16.40;99.90;;;;;;8401031;28;20432;-64
2021/08/26 07:20:42;;;;;;;;;;;16.70;99.90;;;;;;8407881;28;19912;-64
2021/08/26 07:24:43;;;;;;;;;;;16.90;99.90;;;;;;8411026;28;19916;-64
2021/08/26 07:28:43;;;;;;;;;;;17.10;99.90;;;;;;8407628;28;20329;-64
2021/08/26 07:32:44;;;;;;;;;;;17.10;99.90;;;;;;8407644;28;20003;-64
2021/08/26 07:36:44;;;;;;;;;;;17.10;99.90;;;;;;8412485;28;20388;-63
2021/08/26 07:40:45;;;;;;;;;;;17.10;99.90;;;;;;8391206;28;19935;-64
2021/08/26 07:44:45;;;;;;;;;;;17.20;99.90;;;;;;8391843;28;19913;-64
2021/08/26 07:48:45;;;;;;;;;;;17.50;99.90;;;;;;8390637;28;19947;-64
2021/08/26 07:52:46;;;;;;;;;;;17.30;99.90;;;;;;8414977;28;19916;-65
2021/08/26 07:56:46;;;;;;;;;;;17.60;99.90;;;;;;8424850;28;19916;-64
2021/08/26 08:00:47;;;;;;;;;;;18.00;99.90;;;;;;8424553;28;19908;-64
2021/08/26 08:04:47;;;;;;;;;;;17.80;99.90;;;;;;8422736;28;20001;-64
2021/08/26 08:08:48;;;;;;;;;;;17.90;99.90;;;;;;8422376;28;19962;-64
2021/08/26 08:12:48;;;;;;;;;;;17.70;99.90;;;;;;8407484;28;20174;-64
2021/08/26 08:16:49;;;;;;;;;;;17.90;99.90;;;;;;8408077;28;19942;-64
2021/08/26 08:20:49;;;;;;;;;;;18.00;99.90;;;;;;8406673;28;19913;-64
2021/08/26 08:24:49;;;;;;;;;;;17.80;99.90;;;;;;8396556;28;19962;-65
2021/08/26 08:28:50;;;;;;;;;;;17.70;99.90;;;;;;8393442;28;19909;-64
2021/08/26 08:32:51;;;;;;;;;;;17.70;99.90;;;;;;8409358;28;20390;-64
2021/08/26 08:36:51;;;;;;;;;;;17.60;99.90;;;;;;8429619;28;20015;-65
2021/08/26 08:40:51;;;;;;;;;;;17.40;99.90;;;;;;8429823;28;19908;-65
2021/08/26 08:44:52;;;;;;;;;;;17.70;99.90;;;;;;8429152;28;19908;-64
2021/08/26 08:48:54;;;;;;;;;;;17.80;99.90;;;;;;8429065;28;20378;-64
2021/08/26 08:52:55;;;;;;;;;;;17.70;99.90;;;;;;8421689;28;19908;-64
2021/08/26 08:56:55;;;;;;;;;;;17.70;99.90;;;;;;8395649;28;19912;-64
2021/08/26 09:00:55;;;;;;;;;;;17.70;99.90;;;;;;8412936;28;19912;-65
2021/08/26 09:04:57;;;;;;;;;;;18.00;99.90;;;;;;8429431;28;19908;-64
2021/08/26 09:09:02;;;;;;;;;;;18.20;99.90;;;;;;8428400;28;19916;-63
2021/08/26 09:13:02;;;;;;;;;;;18.30;99.90;;;;;;8428688;28;20407;-63
2021/08/26 09:17:03;;;;;;;;;;;18.20;99.90;;;;;;8428439;28;19920;-63
2021/08/26 09:21:05;;;;;;;;;;;18.20;99.90;;;;;;8427639;28;20305;-63
2021/08/26 09:25:06;;;;;;;;;;;18.10;99.90;;;;;;8415244;28;20319;-63
2021/08/26 09:29:08;;;;;;;;;;;18.00;99.90;;;;;;8393848;28;19954;-63
2021/08/26 09:33:10;;;;;;;;;;;18.10;99.90;;;;;;8394532;28;19912;-63
2021/08/26 09:37:11;;;;;;;;;;;18.30;99.90;;;;;;8394114;28;19921;-63
2021/08/26 09:41:15;;;;;;;;;;;18.30;99.90;;;;;;8393908;28;19943;-63
2021/08/26 09:45:17;;;;;;;;;;;18.10;99.90;;;;;;8422137;28;19912;-63
2021/08/26 09:49:21;;;;;;;;;;;18.10;99.90;;;;;;8427466;28;19915;-64
2021/08/26 09:53:36;;;;;;;;;;;18.30;99.90;;;;;;8426577;28;19996;-63
2021/08/26 09:57:39;;;;;;;;;;;18.30;99.90;;;;;;8417028;28;19913;-64
2021/08/26 10:01:40;;;;;;;;;;;18.30;99.90;;;;;;8393478;28;19915;-64
2021/08/26 10:05:43;;;;;;;;;;;18.10;99.90;;;;;;8403235;28;20251;-63
2021/08/26 10:09:44;;;;;;;;;;;18.10;99.90;;;;;;8426485;28;20135;-64
2021/08/26 10:13:45;;;;;;;;;;;18.10;99.90;;;;;;8426370;28;19950;-64
2021/08/26 10:17:46;;;;;;;;;;;18.20;99.90;;;;;;8426659;28;19915;-64
2021/08/26 10:21:47;;;;;;;;;;;18.30;99.90;;;;;;8425790;28;20006;-63
2021/08/26 10:25:49;;;;;;;;;;;18.40;99.90;;;;;;8426799;28;20318;-63
2021/08/26 10:29:49;;;;;;;;;;;18.50;99.90;;;;;;8415238;28;20352;-63
2021/08/26 10:33:50;;;;;;;;;;;18.60;99.90;;;;;;8410673;28;19920;-64
2021/08/26 10:37:55;;;;;;;;;;;18.40;99.90;;;;;;8399588;28;19971;-61
2021/08/26 10:41:56;;;;;;;;;;;18.70;99.90;;;;;;8391830;28;20001;-61
2021/08/26 10:45:57;;;;;;;;;;;18.80;99.90;;;;;;8420183;28;19912;-61
2021/08/26 10:50:15;;;;;;;;;;;18.90;99.90;;;;;;8405140;28;19957;-61
2021/08/26 10:54:28;;;;;;;;;;;18.80;99.90;;;;;;8408375;28;19961;-61
2021/08/26 10:58:33;;;;;;;;;;;18.60;99.90;;;;;;8408838;28;19917;-61
2021/08/26 11:02:40;;;;;;;;;;;18.50;99.90;;;;;;8408758;28;19912;-61
2021/08/26 11:06:42;;;;;;;;;;;18.50;99.90;;;;;;8423278;28;19920;-61
2021/08/26 11:10:44;;;;;;;;;;;18.20;99.90;;;;;;8422476;28;20442;-62
2021/08/26 11:14:46;;;;;;;;;;;17.80;99.90;;;;;;8424450;28;19912;-62
2021/08/26 11:18:46;;;;;;;;;;;17.70;99.90;;;;;;8422978;28;20401;-61
2021/08/26 11:23:22;;;;;;;;;;;17.40;99.90;;;;;;8411127;28;19916;-61
2021/08/26 11:27:27;;;;;;;;;;;17.20;99.90;;;;;;8345802;28;19912;-61
2021/08/26 11:31:28;;;;;;;;;;;17.10;99.90;;;;;;8416081;28;20378;-61
2021/08/26 11:35:30;;;;;;;;;;;17.00;99.90;;;;;;8392412;28;19916;-64
2021/08/26 11:39:37;;;;;;;;;;;16.80;99.90;;;;;;8411901;28;20039;-64
2021/08/26 11:43:43;;;;;;;;;;;16.90;99.90;;;;;;8417564;28;21384;-65
2021/08/26 11:47:54;;;;;;;;;;;16.80;99.90;;;;;;8424739;28;20036;-64
2021/08/26 11:52:02;;;;;;;;;;;16.50;99.90;;;;;;8423413;28;19912;-65
2021/08/26 11:56:02;;;;;;;;;;;16.70;99.90;;;;;;8417963;28;19916;-65
2021/08/26 12:00:10;;;;;;;;;;;16.70;99.90;;;;;;8397247;28;19912;-64
2021/08/26 12:04:10;;;;;;;;;;;16.40;99.90;;;;;;8415496;28;20010;-64
2021/08/26 12:08:11;;;;;;;;;;;16.00;99.90;;;;;;8428989;28;19912;-64
2021/08/26 12:12:12;;;;;;;;;;;16.00;99.90;;;;;;8430589;28;19912;-64
2021/08/26 12:16:23;;;;;;;;;;;15.90;99.90;;;;;;8393617;28;19940;-64
2021/08/26 12:20:24;;;;;;;;;;;16.10;99.90;;;;;;8399388;28;20029;-64
2021/08/26 12:24:24;;;;;;;;;;;16.20;99.90;;;;;;8429791;28;19959;-64
2021/08/26 12:28:30;;;;;;;;;;;16.10;99.90;;;;;;8430219;28;19969;-65
2021/08/26 12:32:34;;;;;;;;;;;16.00;99.90;;;;;;8429899;28;19912;-64
2021/08/26 12:36:36;;;;;;;;;;;16.30;99.90;;;;;;8429682;28;19919;-64
2021/08/26 12:40:48;;;;;;;;;;;16.40;99.90;;;;;;8423724;28;19963;-65
2021/08/26 12:44:48;;;;;;;;;;;16.50;99.90;;;;;;8396331;28;19985;-64
2021/08/26 12:48:49;;;;;;;;;;;16.50;99.90;;;;;;8395278;28;19908;-64
2021/08/26 12:52:50;;;;;;;;;;;16.60;99.90;;;;;;8428778;28;20427;-64
2021/08/26 12:56:56;;;;;;;;;;;16.40;99.90;;;;;;8429151;28;19916;-64
2021/08/26 13:00:57;;;;;;;;;;;16.40;99.90;;;;;;8429435;28;19908;-64
2021/08/26 13:05:05;;;;;;;;;;;16.70;99.90;;;;;;8419455;28;19913;-64
2021/08/26 13:09:09;;;;;;;;;;;16.60;99.90;;;;;;8412794;28;19959;-64
2021/08/26 13:13:11;;;;;;;;;;;16.90;99.90;;;;;;8413582;28;19915;-64
2021/08/26 13:17:13;;;;;;;;;;;16.60;99.90;;;;;;8412659;28;20015;-64
2021/08/26 13:21:14;;;;;;;;;;;16.90;99.90;;;;;;8420727;28;19957;-64
2021/08/26 13:25:16;;;;;;;;;;;16.90;99.90;;;;;;8418174;28;19913;-64
2021/08/26 14:32:31;;;;;;;;;;;15.50;99.90;;;;;;8251453;28;1901747;-65
2021/08/26 14:36:31;;;;;;;;;;;16.00;99.90;;;;;;8334323;28;19917;-66
2021/08/26 14:40:32;;;;;;;;;;;16.90;99.90;;;;;;8336689;28;19916;-65
2021/08/26 14:44:32;;;;;;;;;;;16.80;99.90;;;;;;8320684;28;19952;-64
2021/08/26 14:48:33;;;;;;;;;;;16.80;99.90;;;;;;8340829;28;19917;-65
2021/08/26 14:52:33;;;;;;;;;;;16.70;99.90;;;;;;8337581;28;19917;-65
2021/08/26 14:56:36;;;;;;;;;;;16.60;99.90;;;;;;8348772;28;19928;-65
2021/08/26 15:00:37;;;;;;;;;;;16.50;99.90;;;;;;8347046;28;19928;-64
2021/08/26 15:04:38;;;;;;;;;;;16.40;99.90;;;;;;8342929;28;19917;-65
2021/08/26 15:08:38;;;;;;;;;;;16.30;99.90;;;;;;8336250;28;19913;-64
2021/08/26 15:12:39;;;;;;;;;;;16.00;99.90;;;;;;8328711;28;19920;-65
2021/08/26 15:16:39;;;;;;;;;;;15.90;99.90;;;;;;8324224;28;19917;-64
2021/08/26 15:20:39;;;;;;;;;;;15.70;99.90;;;;;;8329167;28;19982;-65
2021/08/26 15:24:40;;;;;;;;;;;15.90;99.90;;;;;;8325845;28;19959;-64
2021/08/26 15:28:40;;;;;;;;;;;16.60;99.90;;;;;;8317872;28;20062;-64
2021/08/26 15:32:42;;;;;;;;;;;17.90;99.90;;;;;;8295072;28;19925;-64
2021/08/26 15:36:43;;;;;;;;;;;21.40;99.90;;;;;;8288421;28;20012;-64
2021/08/26 15:40:44;;;;;;;;;;;20.30;99.90;;;;;;8288799;28;19920;-64
2021/08/26 15:44:44;;;;;;;;;;;18.00;99.90;;;;;;8292397;28;19913;-64
2021/08/26 15:48:49;;;;;;;;;;;17.90;99.90;;;;;;8292917;28;19916;-64
2021/08/26 15:52:52;;;;;;;;;;;17.80;99.90;;;;;;8287510;28;19950;-65
2021/08/26 15:57:08;;;;;;;;;;;17.70;99.90;;;;;;8279355;28;20497;-63
2021/08/26 16:01:17;;;;;;;;;;;19.00;99.90;;;;;;8294592;28;19932;-64
2021/08/26 16:05:18;;;;;;;;;;;19.20;99.90;;;;;;8295939;28;19981;-64
2021/08/26 16:09:18;;;;;;;;;;;18.00;99.90;;;;;;8296485;28;20304;-64
2021/08/26 16:13:19;;;;;;;;;;;17.60;99.90;;;;;;8290398;28;20016;-63
2021/08/26 16:17:19;;;;;;;;;;;17.30;99.90;;;;;;8295216;28;19909;-64
2021/08/26 16:21:20;;;;;;;;;;;17.20;99.90;;;;;;8297136;28;20455;-64
2021/08/26 16:25:21;;;;;;;;;;;17.00;99.90;;;;;;8296691;28;19936;-64
2021/08/26 16:29:21;;;;;;;;;;;16.90;99.90;;;;;;8295983;28;20495;-63
2021/08/26 16:33:22;;;;;;;;;;;16.70;99.90;;;;;;8318139;28;19999;-64
2021/08/26 16:37:23;;;;;;;;;;;16.60;99.90;;;;;;8327710;28;19909;-64
2021/08/26 16:41:23;;;;;;;;;;;17.40;99.90;;;;;;8328320;28;19909;-64
2021/08/26 16:45:24;;;;;;;;;;;20.50;99.90;;;;;;8323874;28;20000;-64
2021/08/26 16:49:24;;;;;;;;;;;23.10;99.90;;;;;;8323284;28;19966;-64
2021/08/26 16:53:25;;;;;;;;;;;24.30;99.90;;;;;;8322186;28;19909;-65
2021/08/26 16:57:26;;;;;;;;;;;24.60;99.90;;;;;;8308462;28;20300;-64
2021/08/26 17:01:26;;;;;;;;;;;25.00;99.60;;;;;;8326941;28;20405;-62
2021/08/26 17:05:27;;;;;;;;;;;24.20;97.20;;;;;;8327295;28;19944;-62
2021/08/26 17:09:28;;;;;;;;;;;21.80;99.90;;;;;;8327455;28;19924;-63
2021/08/26 17:13:28;;;;;;;;;;;19.70;99.90;;;;;;8327098;28;20311;-62
2021/08/26 17:17:29;;;;;;;;;;;18.40;99.90;;;;;;8325854;28;19913;-62
2021/08/26 17:21:29;;;;;;;;;;;17.60;99.90;;;;;;8326778;28;19995;-62
2021/08/26 17:25:30;;;;;;;;;;;17.00;99.90;;;;;;8325505;28;19964;-62
2021/08/26 17:29:30;;;;;;;;;;;16.50;99.90;;;;;;8306857;28;20182;-62
2021/08/26 17:33:31;;;;;;;;;;;16.40;99.90;;;;;;8325448;28;20004;-61
2021/08/26 17:37:31;;;;;;;;;;;16.10;99.90;;;;;;8321687;28;19915;-62
2021/08/26 17:41:32;;;;;;;;;;;16.00;99.90;;;;;;8307879;28;19978;-62
2021/08/26 17:45:32;;;;;;;;;;;15.70;99.90;;;;;;8322434;28;19973;-63
2021/08/26 17:49:34;;;;;;;;;;;15.50;99.90;;;;;;8329651;28;19917;-62
2021/08/26 17:53:34;;;;;;;;;;;15.40;99.90;;;;;;8319642;28;19913;-62
2021/08/26 17:57:36;;;;;;;;;;;15.20;99.90;;;;;;8320373;28;20505;-62
2021/08/26 18:01:37;;;;;;;;;;;15.00;99.90;;;;;;8320613;28;19913;-62
2021/08/26 18:05:37;;;;;;;;;;;14.80;99.90;;;;;;8320990;28;20399;-61
2021/08/26 18:09:38;;;;;;;;;;;14.50;99.90;;;;;;8321324;28;20398;-63
2021/08/26 18:13:38;;;;;;;;;;;14.10;99.90;;;;;;8321256;28;19913;-63
2021/08/26 18:17:39;;;;;;;;;;;13.70;99.90;;;;;;8318960;28;20010;-62
2021/08/26 18:21:39;;;;;;;;;;;13.70;99.90;;;;;;8314569;28;19913;-62
2021/08/26 18:25:40;;;;;;;;;;;13.70;99.90;;;;;;8320505;28;19913;-62
2021/08/26 18:29:40;;;;;;;;;;;13.60;99.90;;;;;;8314953;28;20416;-61
2021/08/26 18:33:41;;;;;;;;;;;13.60;99.90;;;;;;8323259;28;19917;-62
2021/08/26 18:37:41;;;;;;;;;;;13.40;99.90;;;;;;8324580;28;19913;-61
2021/08/26 18:41:42;;;;;;;;;;;13.50;99.90;;;;;;8324873;28;20365;-64
2021/08/26 18:45:42;;;;;;;;;;;13.30;99.90;;;;;;8324692;28;19924;-64
2021/08/26 18:49:43;;;;;;;;;;;13.30;99.90;;;;;;8320468;28;20411;-64
2021/08/26 18:53:43;;;;;;;;;;;13.30;99.90;;;;;;8324949;28;20392;-63
2021/08/26 18:57:44;;;;;;;;;;;13.10;99.90;;;;;;8324808;28;19916;-63
2021/08/26 19:01:44;;;;;;;;;;;12.90;99.90;;;;;;8326751;28;19959;-63
2021/08/26 19:05:45;;;;;;;;;;;12.70;99.90;;;;;;8330943;28;20008;-64
2021/08/26 19:09:45;;;;;;;;;;;12.60;99.90;;;;;;8329909;28;19939;-65
2021/08/26 19:13:46;;;;;;;;;;;12.30;99.90;;;;;;8327709;28;20384;-63
2021/08/26 19:17:47;;;;;;;;;;;12.20;99.90;;;;;;8308295;28;20420;-64
2021/08/26 19:21:48;;;;;;;;;;;12.50;99.90;;;;;;8328421;28;19939;-63
2021/08/26 19:25:48;;;;;;;;;;;12.80;99.90;;;;;;8325138;28;20039;-63
2021/08/26 19:29:49;;;;;;;;;;;12.80;99.90;;;;;;8325309;28;19917;-64
2021/08/26 19:33:49;;;;;;;;;;;12.50;99.90;;;;;;8329583;28;20063;-63
2021/08/26 19:37:49;;;;;;;;;;;12.30;99.90;;;;;;8328728;28;19921;-63
2021/08/26 19:41:51;;;;;;;;;;;12.20;99.90;;;;;;8327889;28;19913;-63
2021/08/26 19:45:52;;;;;;;;;;;12.40;99.90;;;;;;8328274;28;19992;-63
2021/08/26 19:49:53;;;;;;;;;;;12.20;99.90;;;;;;8327075;28;20513;-64
2021/08/26 19:53:53;;;;;;;;;;;12.00;99.90;;;;;;8322295;28;20021;-64
2021/08/26 19:57:54;;;;;;;;;;;11.80;99.90;;;;;;8313749;28;19913;-64
2021/08/26 20:01:54;;;;;;;;;;;11.70;99.90;;;;;;8304037;28;19909;-64
2021/08/26 20:05:54;;;;;;;;;;;11.60;99.90;;;;;;8309686;28;19913;-64
2021/08/26 20:09:55;;;;;;;;;;;11.80;99.90;;;;;;8309091;28;19987;-64
2021/08/26 20:13:55;;;;;;;;;;;11.90;99.90;;;;;;8311488;28;20416;-63
2021/08/26 20:17:57;;;;;;;;;;;12.10;99.90;;;;;;8321745;28;19917;-64
2021/08/26 20:21:57;;;;;;;;;;;12.00;99.90;;;;;;8324500;28;20381;-64
2021/08/26 20:25:57;;;;;;;;;;;11.80;99.90;;;;;;8325001;28;19925;-64
2021/08/26 20:29:58;;;;;;;;;;;11.70;99.90;;;;;;8324819;28;19940;-63
2021/08/26 20:33:58;;;;;;;;;;;11.50;99.90;;;;;;8324989;28;19928;-64
2021/08/26 20:37:59;;;;;;;;;;;11.50;99.90;;;;;;8324794;28;19960;-64
2021/08/26 20:42:00;;;;;;;;;;;11.60;99.90;;;;;;8324696;28;19920;-64
2021/08/26 20:46:00;;;;;;;;;;;11.70;99.90;;;;;;8323920;28;19955;-64
2021/08/26 20:50:01;;;;;;;;;;;11.50;99.90;;;;;;8324411;28;20373;-64
2021/08/26 20:54:01;;;;;;;;;;;11.50;99.90;;;;;;8324239;28;19963;-63
2021/08/26 20:58:02;;;;;;;;;;;11.40;99.90;;;;;;8324171;28;19939;-64
2021/08/26 21:02:03;;;;;;;;;;;11.70;99.90;;;;;;8324384;28;19920;-65
2021/08/26 21:06:03;;;;;;;;;;;11.90;99.90;;;;;;8323665;28;19913;-63
2021/08/26 21:10:04;;;;;;;;;;;11.70;99.90;;;;;;8324231;28;19970;-64
2021/08/26 21:14:04;;;;;;;;;;;11.50;99.90;;;;;;8324070;28;19921;-64
2021/08/26 21:18:05;;;;;;;;;;;11.40;99.90;;;;;;8305483;28;19913;-64
2021/08/26 21:22:05;;;;;;;;;;;11.40;99.90;;;;;;8320589;28;19924;-64
2021/08/26 21:26:06;;;;;;;;;;;11.20;99.90;;;;;;8321185;28;20009;-65
2021/08/26 21:30:07;;;;;;;;;;;11.40;99.90;;;;;;8358635;28;19909;-65
2021/08/26 21:34:07;;;;;;;;;;;11.40;99.90;;;;;;8359796;28;20316;-65
2021/08/26 21:38:08;;;;;;;;;;;11.50;99.90;;;;;;8357779;28;19920;-65
2021/08/26 21:42:08;;;;;;;;;;;11.60;99.90;;;;;;8359945;28;19916;-65
2021/08/26 21:46:09;;;;;;;;;;;11.50;99.90;;;;;;8354443;28;19909;-65
2021/08/26 21:50:10;;;;;;;;;;;11.40;99.90;;;;;;8325265;28;20026;-65
2021/08/26 21:54:10;;;;;;;;;;;11.40;99.90;;;;;;8326656;28;19913;-66
2021/08/26 21:58:11;;;;;;;;;;;11.50;99.90;;;;;;8326330;28;19956;-65
2021/08/26 22:02:11;;;;;;;;;;;11.50;99.90;;;;;;8326585;28;19952;-65
2021/08/26 22:06:12;;;;;;;;;;;11.50;99.90;;;;;;8326436;28;19916;-65
2021/08/26 22:10:12;;;;;;;;;;;11.50;99.90;;;;;;8326238;28;19909;-65
2021/08/26 22:14:13;;;;;;;;;;;11.60;99.90;;;;;;8326252;28;19920;-66
2021/08/26 22:18:13;;;;;;;;;;;11.50;99.90;;;;;;8325934;28;19967;-65
2021/08/26 22:22:14;;;;;;;;;;;11.60;99.90;;;;;;8326017;28;19948;-65
2021/08/26 22:26:14;;;;;;;;;;;11.80;99.90;;;;;;8324457;28;20023;-66
2021/08/26 22:30:15;;;;;;;;;;;11.70;99.90;;;;;;8325845;28;19913;-65
2021/08/26 22:34:15;;;;;;;;;;;11.70;99.90;;;;;;8340897;28;19996;-65
2021/08/26 22:38:17;;;;;;;;;;;11.60;99.90;;;;;;8330726;28;19956;-65
2021/08/26 22:42:17;;;;;;;;;;;11.70;99.90;;;;;;8331239;28;20457;-65
2021/08/26 22:46:19;;;;;;;;;;;11.50;99.90;;;;;;8332056;28;19960;-65
2021/08/26 22:50:23;;;;;;;;;;;11.30;99.90;;;;;;8330656;28;19975;-65
2021/08/26 22:54:24;;;;;;;;;;;11.40;99.90;;;;;;8330560;28;19956;-66
2021/08/26 22:58:24;;;;;;;;;;;11.50;99.90;;;;;;8331794;28;19931;-65
2021/08/26 23:02:25;;;;;;;;;;;11.60;99.90;;;;;;8331766;28;19909;-66
2021/08/26 23:06:25;;;;;;;;;;;11.70;99.90;;;;;;8331454;28;19909;-65
2021/08/26 23:10:26;;;;;;;;;;;11.60;99.90;;;;;;8331354;28;19952;-65
2021/08/26 23:14:26;;;;;;;;;;;11.60;99.90;;;;;;8331197;28;20301;-65
2021/08/26 23:18:27;;;;;;;;;;;11.50;99.90;;;;;;8337318;28;20054;-65
2021/08/26 23:22:27;;;;;;;;;;;11.60;99.90;;;;;;8331114;28;19913;-65
2021/08/26 23:26:27;;;;;;;;;;;11.70;99.90;;;;;;8330812;28;19913;-65
2021/08/26 23:30:28;;;;;;;;;;;11.70;99.90;;;;;;8330808;28;19913;-66
2021/08/26 23:34:28;;;;;;;;;;;11.70;99.90;;;;;;8329040;28;19960;-66
2021/08/26 23:38:29;;;;;;;;;;;11.60;99.90;;;;;;8330851;28;19909;-66
2021/08/26 23:42:29;;;;;;;;;;;11.70;99.90;;;;;;8330688;28;19913;-65
2021/08/26 23:46:30;;;;;;;;;;;11.50;99.90;;;;;;8329743;28;20280;-65
2021/08/26 23:50:30;;;;;;;;;;;11.50;99.90;;;;;;8330540;28;19943;-65
2021/08/26 23:54:31;;;;;;;;;;;11.50;99.90;;;;;;8345720;28;19920;-65
2021/08/26 23:58:31;;;;;;;;;;;11.60;99.90;;;;;;8330428;28;19910;-65
